Terminal Aerodrome Forecast
Issued by NWS Tulsa, OK

Home | Current Version | Previous Version | Text Only | Print | Product List | Glossary On
Versions: 1 2 3 4 5 6 7 8 9 10 11 12 13 14 15 16 17 18 19 20 21 22 23 24 25 26 27
000
FTUS44 KTSA 261100
TAFFSM
TAF
KFSM 261139Z 2612/2712 15005KT P6SM SCT020 OVC040
     FM261700 23005KT P6SM SCT040
     FM270400 08005KT P6SM BKN150 PROB30 2704/2708 4SM -TSRA
      BKN050CB=

USA.gov is the U.S. government's official web portal to all federal, state and local government web resources and services.